Medellin, Colombia

8:39 AM COT on August 02, 2015 (GMT -0500)
Olaya Herrera | | Change Station
CLOSE
Current Station
Airport
Location: Medellin,
Elevation: 4918 ft
Nearby Weather Stations

Elev 4918 ft 6.22 °N, 75.59 °W | Updated 39 minutes ago

Mostly Cloudy
Mostly Cloudy
72 °F
Feels Like 72 °F
N
4
Wind Variable Wind from NE

Today
High -- | Low -- °F
--% Chance of Precip.
Yesterday
High -- | Low -- °F
Precip. -- in
5:57 AM 6:20 PM
Waning Gibbous, 94% visible
Pressure 30.14 in
Visibility 6.2 miles
Clouds Few 4000 ft
Mostly Cloudy 8000 ft
Dew Point 61 °F
Humidity 69%
Rainfall 0.00 in
Snow Depth Not available.
UV 2 out of 12
Pollen Not available.
Air Quality Not available.
Flu Activity Not available.
METAR SKMD 021300Z 04003KT 9999 FEW040 BKN080 22/16 A3014

More Conditions Fewer Conditions

Pressure 30.14 in
Visibility 6.2 miles
Clouds Few 4000 ft
Mostly Cloudy 8000 ft
Dew Point 61 °F
Humidity 69%
Rainfall 0.00 in
Snow Depth Not available.
UV 2 out of 12
Pollen Not available.
Air Quality Not available.
Flu Activity Not available.
METAR SKMD 021300Z 04003KT 9999 FEW040 BKN080 22/16 A3014

More Conditions Fewer Conditions

10-Day Weather Forecast

×

Almanac

Astronomy

Aug. 02, 2015 Rise Set
Actual Time
Civil Twilight
Nautical Twilight
Astronomical Twilight
Moon
Length of Visible Light
Length of Day
Tomorrow will be .
, % of the Moon is Illuminated

Today's Extremes

Country Highs Country Lows

Community

WunderPhotos

Upload Photos

1,843,246 photos uploaded!

WunderBlogs® & News

Nearby

Air Quality

  Air Quality AQ Index Pollutant
Not available.

Snow Depth

Station Depth Elevation

Earthquake Activity

City Distance Mag. Time & Date
Minimum magnitude displayed is 2.5.

Coastal Water Temperatures

Place Temperature

Stations

Nearby Weather Stations

Station Location Temp. Windchill Dew Point Humidity Wind Precip. Elev Updated Type